Kandilli — TCAZ — position and weather

sailwx.info

Track history (hours):
 
Tides and Currents Weather Stations Pressure Air Temp Water Temp Dewpoint Dewpoint Depression Visibility Wind Speed Wind Dir Waves Ship Positions

Kandilli

Last reported at 2014-Jul-23 03:09 UTC. Time now 2014-Jul-23 09:51 UTC.
Position N 45°54' E 030°46'.

Length 100 m; draft 5.8 m.

Type: Ship (hazmat cat C). MMSI: 271000334.

Date/timePositionNaut miles runAvg speedWind from/ knotsBaromVisibWave heightAir tempDewpointWater temp
2014-Jul-23 03:09N 45°54' E 030°46'813.2
2014-Jul-23 02:34N 46°02' E 030°49'29 1.4
2014-Jul-22 05:21N 46°31' E 030°44'0 0.0
2014-Jul-22 03:24N 46°31' E 030°44'6 6.6
2014-Jul-22 02:33N 46°28' E 030°51'3 0.9
2014-Jul-21 23:10N 46°26' E 030°54'0 0.0
2014-Jul-21 18:22N 46°26' E 030°54'0 0.0
2014-Jul-21 17:31N 46°26' E 030°54'0 0.0
2014-Jul-20 23:31N 46°26' E 030°54'4 1.8
2014-Jul-20 21:06N 46°21' E 030°53'813.6
2014-Jul-20 20:33N 46°15' E 030°59'1414.4
2014-Jul-20 19:33N 46°05' E 031°14'17414.3
2014-Jul-20 07:22N 43°59' E 034°04'  
2014-Jul-17 15:29N 41°51' E 036°04'1314.3
2014-Jul-17 14:33N 42°01' E 035°53'1414.4
2014-Jul-17 13:33N 42°12' E 035°41'1914.0
2014-Jul-17 12:14N 42°27' E 035°26'913.4
2014-Jul-17 11:33N 42°34' E 035°18'2813.2
2014-Jul-17 09:26N 42°56' E 034°55'2713.5
2014-Jul-17 07:26N 43°17' E 034°31'1213.7
2014-Jul-17 06:33N 43°26' E 034°21'232 4.6
2014-Jul-15 04:11N 46°26' E 030°54'710.8
2014-Jul-15 03:33N 46°19' E 030°54'1814.4
2014-Jul-15 02:20N 46°06' E 031°12'16813.2
2014-Jul-14 13:33N 43°59' E 033°48'4113.6
2014-Jul-14 10:33N 43°24' E 034°15'1413.5
2014-Jul-14 09:33N 43°11' E 034°22'  
Track history (hours):
 
Tides and Currents Weather Stations Pressure Air Temp Water Temp Dewpoint Dewpoint Depression Visibility Wind Speed Wind Dir Waves Ship Positions

Kandilli

Last reported at 2014-Jul-23 03:09 UTC. Time now 2014-Jul-23 09:51 UTC.
Position N 45°54' E 030°46'.

Length 100 m; draft 5.8 m.

Type: Ship (hazmat cat C). MMSI: 271000334.

Date/timePositionNaut miles runAvg speedWind from/ knotsBaromVisibWave heightAir tempDewpointWater temp
2014-Jul-23 03:09N 45°54' E 030°46'813.2
2014-Jul-23 02:34N 46°02' E 030°49'29 1.4
2014-Jul-22 05:21N 46°31' E 030°44'0 0.0
2014-Jul-22 03:24N 46°31' E 030°44'6 6.6
2014-Jul-22 02:33N 46°28' E 030°51'3 0.9
2014-Jul-21 23:10N 46°26' E 030°54'0 0.0
2014-Jul-21 18:22N 46°26' E 030°54'0 0.0
2014-Jul-21 17:31N 46°26' E 030°54'0 0.0
2014-Jul-20 23:31N 46°26' E 030°54'4 1.8
2014-Jul-20 21:06N 46°21' E 030°53'813.6
2014-Jul-20 20:33N 46°15' E 030°59'1414.4
2014-Jul-20 19:33N 46°05' E 031°14'17414.3
2014-Jul-20 07:22N 43°59' E 034°04'  
2014-Jul-17 15:29N 41°51' E 036°04'1314.3
2014-Jul-17 14:33N 42°01' E 035°53'1414.4
2014-Jul-17 13:33N 42°12' E 035°41'1914.0
2014-Jul-17 12:14N 42°27' E 035°26'913.4
2014-Jul-17 11:33N 42°34' E 035°18'2813.2
2014-Jul-17 09:26N 42°56' E 034°55'2713.5
2014-Jul-17 07:26N 43°17' E 034°31'1213.7
2014-Jul-17 06:33N 43°26' E 034°21'232 4.6
2014-Jul-15 04:11N 46°26' E 030°54'710.8
2014-Jul-15 03:33N 46°19' E 030°54'1814.4
2014-Jul-15 02:20N 46°06' E 031°12'16813.2
2014-Jul-14 13:33N 43°59' E 033°48'4113.6
2014-Jul-14 10:33N 43°24' E 034°15'1413.5
2014-Jul-14 09:33N 43°11' E 034°22'  

Dump ship's entire track history